Time;durP1;ratioP1;P1;durP2;ratioP2;P2;SDS_P1;SDS_P2;PMS_P1;PMS_P2;Temp;Humidity;BMP_temperature;BMP_pressure;BME280_temperature;BME280_humidity;BME280_pressure;Samples;Min_cycle;Max_cycle;Signal;HPM_P1;HPM_P2
2022/01/23 00:01:45;;;;;;;38.72;25.98;;;9.00;75.00;;;;;;5048521;28;20196;-77
2022/01/23 00:04:13;;;;;;;44.42;27.60;;;9.00;75.00;;;;;;5038052;28;20068;-77
2022/01/23 00:06:41;;;;;;;39.85;25.65;;;9.00;75.10;;;;;;5061447;28;20047;-77
2022/01/23 00:09:08;;;;;;;39.38;26.88;;;9.00;75.10;;;;;;5063146;28;20128;-77
2022/01/23 00:11:40;;;;;;;39.75;25.83;;;9.00;75.10;;;;;;5047502;28;20040;-77
2022/01/23 00:19:20;;;;;;;39.10;26.67;;;9.00;75.10;;;;;;5047861;28;20155;-77
2022/01/23 00:21:51;;;;;;;39.47;26.48;;;9.00;75.00;;;;;;5060286;28;20516;-77
2022/01/23 00:30:22;;;;;;;42.95;27.25;;;8.90;75.00;;;;;;5074076;28;20500;-77
2022/01/23 00:32:50;;;;;;;38.15;25.13;;;9.00;75.20;;;;;;5067611;28;20048;-77
2022/01/23 00:35:17;;;;;;;42.67;26.30;;;9.00;75.10;;;;;;5050512;28;20033;-77
2022/01/23 00:37:44;;;;;;;41.45;26.52;;;8.90;75.10;;;;;;5044659;28;20052;-77
2022/01/23 00:40:12;;;;;;;37.90;26.10;;;9.00;75.10;;;;;;5068324;28;20040;-77
2022/01/23 00:42:39;;;;;;;36.88;25.70;;;9.00;75.20;;;;;;5067510;28;20040;-77
2022/01/23 00:47:53;;;;;;;35.47;25.85;;;9.00;75.20;;;;;;5039787;28;20047;-77
2022/01/23 00:50:20;;;;;;;37.75;25.13;;;9.00;75.20;;;;;;5033530;28;20133;-77
2022/01/23 00:52:47;;;;;;;42.25;25.98;;;9.00;75.20;;;;;;5047839;28;20064;-77
2022/01/23 00:55:14;;;;;;;38.33;25.55;;;9.00;75.20;;;;;;5059363;28;20064;-77
2022/01/23 00:57:42;;;;;;;38.10;25.08;;;9.00;75.20;;;;;;5059579;28;20576;-77
2022/01/23 01:00:11;;;;;;;37.17;26.85;;;9.00;75.20;;;;;;5059606;28;20068;-77
2022/01/23 01:02:38;;;;;;;43.25;27.23;;;9.00;75.20;;;;;;5046962;28;20127;-78
2022/01/23 01:05:06;;;;;;;38.42;25.52;;;9.00;75.20;;;;;;5053481;28;20045;-77
2022/01/23 01:07:33;;;;;;;39.08;26.67;;;9.00;75.20;;;;;;5039340;28;20032;-77
2022/01/23 01:10:07;;;;;;;41.00;27.65;;;8.90;75.20;;;;;;5047456;28;20045;-77
2022/01/23 01:12:46;;;;;;;38.95;26.80;;;9.00;75.20;;;;;;5025832;28;20055;-77
2022/01/23 01:31:45;;;;;;;40.17;26.67;;;9.00;74.90;;;;;;5044905;28;20064;-78
2022/01/23 01:34:26;;;;;;;37.10;25.83;;;9.00;74.90;;;;;;5042564;28;20052;-78
2022/01/23 01:36:54;;;;;;;42.58;27.20;;;9.00;74.90;;;;;;5033527;28;20044;-77
2022/01/23 01:39:25;;;;;;;41.65;26.27;;;9.00;75.00;;;;;;5051206;28;20047;-78
2022/01/23 01:41:53;;;;;;;40.97;27.38;;;9.00;75.00;;;;;;5074054;28;20028;-77
2022/01/23 01:44:22;;;;;;;39.50;26.75;;;9.00;75.10;;;;;;5070966;28;20076;-77
2022/01/23 01:47:01;;;;;;;42.20;27.42;;;9.00;75.20;;;;;;5055566;28;20527;-78
2022/01/23 01:49:33;;;;;;;40.28;27.38;;;9.00;75.90;;;;;;5057102;28;20079;-77
2022/01/23 01:52:04;;;;;;;41.13;27.13;;;9.00;75.20;;;;;;5043573;28;20886;-77
2022/01/23 01:54:32;;;;;;;42.67;28.40;;;9.00;75.20;;;;;;5050335;28;20040;-77
2022/01/23 01:57:10;;;;;;;41.72;27.30;;;9.00;75.20;;;;;;5042108;28;20043;-77
2022/01/23 02:08:31;;;;;;;42.20;28.17;;;9.10;75.10;;;;;;5048510;28;20041;-77
2022/01/23 02:11:06;;;;;;;43.50;27.08;;;9.00;75.00;;;;;;5050702;28;20068;-77
2022/01/23 02:13:39;;;;;;;39.42;27.75;;;9.10;75.10;;;;;;5030732;28;20056;-77
2022/01/23 02:17:09;;;;;;;43.78;28.13;;;9.00;75.10;;;;;;5026467;28;20844;-77
2022/01/23 02:54:56;;;;;;;42.38;28.65;;;9.00;75.30;;;;;;5064418;28;20131;-77
2022/01/23 02:57:53;;;;;;;46.17;29.92;;;9.00;75.30;;;;;;5054755;28;20078;-77
2022/01/23 03:00:32;;;;;;;42.17;27.80;;;9.00;75.30;;;;;;5052165;28;20047;-77
2022/01/23 03:03:11;;;;;;;43.17;30.02;;;9.00;75.20;;;;;;5070603;28;20507;-77
2022/01/23 03:30:25;;;;;;;43.55;29.60;;;9.00;75.30;;;;;;5050417;28;20052;-46
2022/01/23 03:32:53;;;;;;;43.85;28.48;;;9.10;75.30;;;;;;5064312;28;20048;-45
2022/01/23 03:35:21;;;;;;;45.63;28.80;;;9.00;75.20;;;;;;5087155;22;21511;-48
2022/01/23 03:37:49;;;;;;;43.85;30.40;;;9.00;75.10;;;;;;5042168;28;20036;-48
2022/01/23 03:40:17;;;;;;;43.55;28.35;;;9.00;75.10;;;;;;5051434;28;20111;-49
2022/01/23 03:42:46;;;;;;;47.38;29.05;;;9.00;75.00;;;;;;5069108;28;20036;-45
2022/01/23 03:50:43;;;;;;;41.55;27.55;;;9.00;75.20;;;;;;5031388;28;20055;-49
2022/01/23 03:53:13;;;;;;;45.55;27.00;;;9.00;75.30;;;;;;5038128;28;20056;-50
2022/01/23 03:55:40;;;;;;;42.53;27.73;;;9.00;76.00;;;;;;5044672;28;20041;-47
2022/01/23 03:58:09;;;;;;;42.05;28.33;;;9.00;75.40;;;;;;5061940;28;20054;-47
2022/01/23 04:00:36;;;;;;;42.72;28.05;;;9.00;75.50;;;;;;5067310;28;20040;-48
2022/01/23 04:03:03;;;;;;;40.55;27.05;;;9.00;75.50;;;;;;5053935;28;20132;-47
2022/01/23 04:05:30;;;;;;;48.40;29.20;;;9.00;75.40;;;;;;5053762;28;20052;-47
2022/01/23 04:07:57;;;;;;;44.05;28.58;;;9.00;75.40;;;;;;5067202;28;20040;-47
2022/01/23 04:10:27;;;;;;;44.15;28.73;;;9.00;75.50;;;;;;5052285;28;20064;-46
2022/01/23 04:13:10;;;;;;;49.97;28.42;;;9.00;75.40;;;;;;5060002;28;20530;-47
2022/01/23 04:33:13;;;;;;;40.53;26.65;;;8.80;75.20;;;;;;5063186;28;20052;-46
2022/01/23 04:59:55;;;;;;;41.08;28.27;;;9.00;75.50;;;;;;5058276;28;20048;-47
2022/01/23 05:05:01;;;;;;;44.70;28.23;;;9.00;75.50;;;;;;5076836;28;20052;-46
2022/01/23 05:07:46;;;;;;;45.13;27.50;;;9.00;75.50;;;;;;5070005;28;20049;-46
2022/01/23 05:10:28;;;;;;;46.72;28.63;;;9.00;75.50;;;;;;5070637;28;20028;-46
2022/01/23 05:13:15;;;;;;;39.78;26.02;;;9.00;75.50;;;;;;5066697;28;20489;-44
2022/01/23 05:15:42;;;;;;;44.08;27.35;;;9.00;75.50;;;;;;5071577;28;20040;-46
2022/01/23 05:18:09;;;;;;;39.75;27.13;;;9.00;75.40;;;;;;5065174;28;20033;-47
2022/01/23 05:20:37;;;;;;;44.90;28.80;;;9.00;75.50;;;;;;5058766;28;20048;-46
2022/01/23 05:23:06;;;;;;;43.05;29.15;;;9.00;75.50;;;;;;5060512;28;20107;-45
2022/01/23 05:25:35;;;;;;;45.55;28.55;;;9.00;75.40;;;;;;5074415;28;20048;-47
2022/01/23 05:28:02;;;;;;;43.35;28.73;;;9.00;75.40;;;;;;5043799;28;20453;-47
2022/01/23 05:30:29;;;;;;;48.22;29.63;;;9.00;75.30;;;;;;5069153;28;20057;-45
2022/01/23 05:32:58;;;;;;;40.70;27.35;;;9.10;75.30;;;;;;5042779;28;20048;-46
2022/01/23 05:35:27;;;;;;;44.97;28.90;;;8.90;75.20;;;;;;5050492;28;20046;-45
2022/01/23 05:37:57;;;;;;;45.58;27.80;;;9.00;75.30;;;;;;5070644;28;20048;-49
2022/01/23 05:40:27;;;;;;;44.58;28.55;;;9.00;75.50;;;;;;5059977;28;20553;-46
2022/01/23 05:42:55;;;;;;;44.05;29.02;;;8.90;75.40;;;;;;5069639;28;20503;-49
2022/01/23 05:45:23;;;;;;;43.22;28.92;;;9.00;75.50;;;;;;5057081;28;20051;-47
2022/01/23 05:48:05;;;;;;;42.13;28.88;;;9.00;75.50;;;;;;5081681;28;20102;-47
2022/01/23 05:50:50;;;;;;;49.38;31.00;;;9.00;75.50;;;;;;5051469;28;20055;-46
2022/01/23 05:53:36;;;;;;;43.65;28.73;;;9.00;75.40;;;;;;5068563;28;20525;-46
2022/01/23 05:56:03;;;;;;;51.67;30.73;;;9.00;75.40;;;;;;5078776;28;20544;-46
2022/01/23 05:58:48;;;;;;;44.42;28.52;;;9.00;75.40;;;;;;5077953;28;20054;-46
2022/01/23 06:01:17;;;;;;;47.58;30.17;;;9.00;75.20;;;;;;5073600;28;20075;-45
2022/01/23 06:03:45;;;;;;;45.83;30.80;;;8.90;75.00;;;;;;5062619;28;20036;-46
2022/01/23 06:06:14;;;;;;;47.38;29.90;;;8.90;75.00;;;;;;5053596;28;20052;-46
2022/01/23 06:08:42;;;;;;;46.47;29.98;;;8.90;74.90;;;;;;5061063;28;20630;-49
2022/01/23 06:11:12;;;;;;;47.00;29.63;;;8.90;74.90;;;;;;5056413;28;20075;-48
2022/01/23 06:13:41;;;;;;;45.33;30.83;;;8.90;74.90;;;;;;5059072;28;20139;-48
2022/01/23 06:16:11;;;;;;;48.85;29.20;;;8.80;75.00;;;;;;5050563;28;20045;-45
2022/01/23 06:18:41;;;;;;;47.55;28.80;;;8.80;75.10;;;;;;5052014;28;20523;-46
2022/01/23 06:21:26;;;;;;;44.20;27.55;;;8.80;75.30;;;;;;5078349;28;20517;-46
2022/01/23 06:24:21;;;;;;;41.67;26.83;;;8.80;75.30;;;;;;5050693;28;20524;-48
2022/01/23 06:27:17;;;;;;;40.13;27.40;;;8.80;75.30;;;;;;5025538;28;20527;-47
2022/01/23 06:29:44;;;;;;;45.42;27.67;;;8.80;75.30;;;;;;5045842;28;20048;-46
2022/01/23 06:32:12;;;;;;;41.83;27.90;;;8.80;75.50;;;;;;5053494;28;20045;-46
2022/01/23 06:34:41;;;;;;;42.50;27.42;;;8.80;75.50;;;;;;5057170;28;20495;-45
2022/01/23 06:37:08;;;;;;;43.42;27.55;;;8.80;75.60;;;;;;5081679;28;20044;-49
2022/01/23 06:39:35;;;;;;;41.47;27.20;;;8.80;75.60;;;;;;5087999;28;20594;-45
2022/01/23 06:42:03;;;;;;;45.40;26.67;;;8.90;75.70;;;;;;5075386;28;20059;-47
2022/01/23 06:44:59;;;;;;;38.60;26.05;;;8.90;75.70;;;;;;5060166;28;20048;-45
2022/01/23 06:47:26;;;;;;;44.47;27.98;;;8.90;75.60;;;;;;5062440;28;20044;-48
2022/01/23 06:49:53;;;;;;;41.80;27.63;;;8.90;75.60;;;;;;5056741;28;20046;-46
2022/01/23 06:52:20;;;;;;;43.33;27.42;;;8.90;75.40;;;;;;5082376;28;20503;-45
2022/01/23 06:54:53;;;;;;;44.47;27.00;;;8.90;75.40;;;;;;5066307;28;20056;-47
2022/01/23 06:57:19;;;;;;;44.70;27.27;;;8.90;75.40;;;;;;5069065;28;20043;-47
2022/01/23 06:59:49;;;;;;;42.92;27.85;;;9.00;75.50;;;;;;5075959;28;20045;-49
2022/01/23 07:02:39;;;;;;;39.17;25.38;;;9.00;75.40;;;;;;5031369;28;20483;-49
2022/01/23 07:05:31;;;;;;;;;;;9.00;75.40;;;;;;5060764;28;20158;-48
2022/01/23 07:08:14;;;;;;;38.47;24.27;;;9.00;75.40;;;;;;5071707;28;19931;-49
2022/01/23 07:11:06;;;;;;;44.90;26.45;;;9.00;75.20;;;;;;5065497;28;20082;-47
2022/01/23 07:14:03;;;;;;;41.53;26.02;;;9.00;75.10;;;;;;5051121;28;20052;-49
2022/01/23 07:16:49;;;;;;;37.55;24.67;;;9.00;75.10;;;;;;5066420;28;20178;-54
2022/01/23 07:19:22;;;;;;;38.92;25.50;;;9.00;75.10;;;;;;5071817;28;20036;-54
2022/01/23 07:21:54;;;;;;;;;;;9.00;75.20;;;;;;5058884;28;20048;-51
2022/01/23 07:24:23;;;;;;;39.65;23.85;;;9.00;75.30;;;;;;5056588;28;19978;-54
2022/01/23 07:26:49;;;;;;;35.95;24.42;;;9.00;75.10;;;;;;5067798;28;20044;-54
2022/01/23 07:29:18;;;;;;;41.63;25.92;;;9.00;75.10;;;;;;5051405;28;20064;-54
2022/01/23 07:31:57;;;;;;;40.88;27.02;;;9.00;75.10;;;;;;5047972;28;20048;-55
2022/01/23 07:34:27;;;;;;;41.00;26.27;;;9.00;75.20;;;;;;5059434;28;20047;-55
2022/01/23 07:36:55;;;;;;;43.20;27.10;;;9.00;75.30;;;;;;5064133;28;20056;-55
2022/01/23 07:39:42;;;;;;;38.53;25.80;;;9.00;75.40;;;;;;5062026;28;20047;-53
2022/01/23 07:42:23;;;;;;;38.40;24.80;;;9.00;75.40;;;;;;5040071;28;20064;-53
2022/01/23 07:44:59;;;;;;;41.83;26.02;;;8.90;75.40;;;;;;5052635;28;20561;-55
2022/01/23 07:47:26;;;;;;;43.35;26.85;;;9.00;75.40;;;;;;5076293;28;20055;-54
2022/01/23 07:49:55;;;;;;;45.53;27.70;;;9.00;75.50;;;;;;5078097;28;20046;-55
2022/01/23 07:52:35;;;;;;;42.63;27.98;;;9.00;75.40;;;;;;5069853;28;20419;-54
2022/01/23 07:55:28;;;;;;;38.15;25.88;;;9.00;75.40;;;;;;5064392;28;20082;-55
2022/01/23 07:58:15;;;;;;;43.80;27.80;;;9.00;75.40;;;;;;5025815;28;20052;-55
2022/01/23 08:01:05;;;;;;;40.03;26.38;;;9.00;75.30;;;;;;5057663;28;20410;-55
2022/01/23 08:03:43;;;;;;;40.30;25.85;;;9.00;75.40;;;;;;5038575;28;20585;-54
2022/01/23 08:06:16;;;;;;;40.10;25.58;;;9.00;76.10;;;;;;5047199;28;20077;-56
2022/01/23 08:08:48;;;;;;;39.05;25.17;;;9.00;75.40;;;;;;5040507;28;20658;-54
2022/01/23 08:11:23;;;;;;;40.45;25.27;;;9.00;75.50;;;;;;5064839;28;20135;-56
2022/01/23 08:13:49;;;;;;;40.17;26.13;;;9.10;75.60;;;;;;5059924;28;20036;-54
2022/01/23 08:16:17;;;;;;;43.70;28.80;;;9.10;75.60;;;;;;5065599;28;20055;-55
2022/01/23 08:18:43;;;;;;;46.92;27.88;;;9.10;75.60;;;;;;5058230;28;20120;-55
2022/01/23 08:21:10;;;;;;;43.63;26.95;;;9.10;75.50;;;;;;5064072;28;20400;-55
2022/01/23 08:23:38;;;;;;;47.88;28.55;;;9.10;75.50;;;;;;5064532;28;20040;-55
2022/01/23 08:26:06;;;;;;;38.75;25.83;;;9.10;75.50;;;;;;5064208;28;20044;-54
2022/01/23 08:28:33;;;;;;;40.58;26.45;;;9.10;75.50;;;;;;5059076;28;20126;-55
2022/01/23 08:31:00;;;;;;;40.38;26.35;;;9.10;75.50;;;;;;5066777;28;20078;-54
2022/01/23 08:33:27;;;;;;;43.33;27.52;;;9.10;75.50;;;;;;5067134;28;20036;-51
2022/01/23 08:35:56;;;;;;;46.40;30.05;;;9.10;75.50;;;;;;5067746;28;20044;-53
2022/01/23 08:38:26;;;;;;;44.25;27.83;;;9.20;75.60;;;;;;5059560;28;20068;-55
2022/01/23 08:41:49;;;;;;;40.90;26.15;;;9.20;75.50;;;;;;5065749;28;20053;-54
2022/01/23 08:43:49;;;;;;;;;;;9.20;75.60;;;;;;5062799;28;20086;-54
2022/01/23 08:46:18;;;;;;;41.58;26.02;;;9.20;75.60;;;;;;5066901;28;20029;-54
2022/01/23 08:48:45;;;;;;;48.50;29.40;;;9.20;75.20;;;;;;5057103;28;20131;-54
2022/01/23 08:51:12;;;;;;;45.08;28.00;;;9.20;75.20;;;;;;5057162;28;20098;-55
2022/01/23 08:53:39;;;;;;;43.65;29.02;;;9.20;75.10;;;;;;5065058;28;20071;-55
2022/01/23 08:56:06;;;;;;;49.03;32.22;;;9.20;75.20;;;;;;5066776;28;20052;-54
2022/01/23 08:58:33;;;;;;;45.40;30.30;;;9.20;75.20;;;;;;5056499;28;20103;-55
2022/01/23 09:01:00;;;;;;;45.78;27.30;;;9.20;75.20;;;;;;5066323;28;20179;-56
2022/01/23 09:03:27;;;;;;;43.33;27.95;;;9.20;75.00;;;;;;5061339;28;20306;-55
2022/01/23 09:05:54;;;;;;;43.97;28.15;;;9.20;74.90;;;;;;5064827;28;20036;-54
2022/01/23 09:08:21;;;;;;;46.10;28.85;;;9.20;74.90;;;;;;5057865;28;20844;-55
2022/01/23 09:10:57;;;;;;;43.55;28.50;;;9.20;75.00;;;;;;5072273;28;20063;-55
2022/01/23 09:13:51;;;;;;;38.63;26.60;;;9.20;75.10;;;;;;5060691;28;20045;-55
2022/01/23 09:16:18;;;;;;;43.50;27.17;;;9.20;74.90;;;;;;5064764;28;20094;-54
2022/01/23 09:18:45;;;;;;;44.60;28.75;;;9.20;74.80;;;;;;5056672;28;20576;-53
2022/01/23 09:21:12;;;;;;;45.03;28.65;;;9.20;74.90;;;;;;5072243;28;20028;-55
2022/01/23 09:23:39;;;;;;;42.03;27.55;;;9.20;75.00;;;;;;5064362;28;20698;-54
2022/01/23 09:26:09;;;;;;;45.20;27.05;;;9.20;75.00;;;;;;5066456;28;20396;-55
2022/01/23 09:28:40;;;;;;;44.42;27.08;;;9.20;75.20;;;;;;5058323;28;20044;-55
2022/01/23 09:31:07;;;;;;;45.33;28.13;;;9.30;75.20;;;;;;5072746;28;20496;-55
2022/01/23 09:33:37;;;;;;;44.00;29.77;;;9.30;75.30;;;;;;5067532;28;20036;-55
2022/01/23 09:36:04;;;;;;;42.28;28.50;;;9.30;75.30;;;;;;5065545;28;20045;-55
2022/01/23 09:38:30;;;;;;;41.13;27.67;;;9.30;75.20;;;;;;5057029;28;20040;-55
2022/01/23 09:40:58;;;;;;;43.55;28.52;;;9.30;75.00;;;;;;5064639;28;20048;-53
2022/01/23 09:43:29;;;;;;;46.20;28.42;;;9.30;75.50;;;;;;5061189;28;20044;-54
2022/01/23 09:45:56;;;;;;;45.35;28.00;;;9.40;74.90;;;;;;5064785;28;20458;-55
2022/01/23 09:48:23;;;;;;;41.75;26.40;;;9.40;74.90;;;;;;5057977;28;20049;-54
2022/01/23 09:50:54;;;;;;;42.50;26.52;;;9.40;74.80;;;;;;5071505;28;20044;-55
2022/01/23 09:53:23;;;;;;;41.42;26.77;;;9.40;74.70;;;;;;5056428;28;20128;-53
2022/01/23 09:55:53;;;;;;;46.33;27.60;;;9.40;74.70;;;;;;5068909;28;20488;-54
2022/01/23 09:58:24;;;;;;;42.03;27.30;;;9.40;74.70;;;;;;5041563;28;20131;-54
2022/01/23 10:00:52;;;;;;;49.03;29.88;;;9.40;74.70;;;;;;5073560;28;20475;-51
2022/01/23 10:03:19;;;;;;;44.13;27.80;;;9.40;74.90;;;;;;5061289;28;20563;-48
2022/01/23 10:05:55;;;;;;;46.40;29.02;;;9.50;75.00;;;;;;5052165;28;20118;-50
2022/01/23 10:08:23;;;;;;;44.72;27.13;;;9.50;74.90;;;;;;5063044;28;20040;-49
2022/01/23 10:10:52;;;;;;;45.40;28.25;;;9.50;74.80;;;;;;5076766;28;20040;-48
2022/01/23 10:13:26;;;;;;;44.78;28.98;;;9.50;74.70;;;;;;5064721;28;20090;-49
2022/01/23 10:15:53;;;;;;;41.88;27.15;;;9.60;74.50;;;;;;5043543;28;20055;-50
2022/01/23 10:18:20;;;;;;;43.22;27.48;;;9.60;74.60;;;;;;5060432;28;20052;-49
2022/01/23 10:20:47;;;;;;;43.20;26.90;;;9.60;74.60;;;;;;5076281;28;20526;-49
2022/01/23 10:23:15;;;;;;;43.42;27.83;;;9.60;74.50;;;;;;5070332;28;20079;-48
2022/01/23 10:25:43;;;;;;;44.08;28.33;;;9.60;74.50;;;;;;5054247;28;20349;-48
2022/01/23 10:28:19;;;;;;;46.50;26.85;;;9.60;74.50;;;;;;5061261;28;20040;-49
2022/01/23 10:30:50;;;;;;;45.67;26.80;;;9.70;74.40;;;;;;5067305;28;20059;-48
2022/01/23 10:33:31;;;;;;;46.40;27.40;;;9.70;74.20;;;;;;5063710;28;20123;-50
2022/01/23 10:36:08;;;;;;;44.20;27.95;;;9.70;74.00;;;;;;5061792;28;20048;-48
2022/01/23 10:38:51;;;;;;;41.08;27.02;;;9.70;74.00;;;;;;5059798;28;20079;-50
2022/01/23 10:50:00;;;;;;;40.60;26.10;;;9.80;74.00;;;;;;5064890;28;20048;-49
2022/01/23 10:52:40;;;;;;;38.28;23.67;;;9.80;73.90;;;;;;5067684;28;20059;-49
2022/01/23 10:55:13;;;;;;;45.72;26.85;;;9.80;74.10;;;;;;5067290;28;20198;-48
2022/01/23 10:57:42;;;;;;;42.28;27.85;;;9.80;74.60;;;;;;5060129;28;20544;-50
2022/01/23 11:00:20;;;;;;;43.67;28.55;;;9.80;74.00;;;;;;5072267;28;20043;-48
2022/01/23 11:02:47;;;;;;;40.80;24.85;;;9.90;74.00;;;;;;5063425;28;20105;-49
2022/01/23 11:05:22;;;;;;;39.70;24.98;;;9.90;73.90;;;;;;5068395;28;20041;-50
2022/01/23 11:07:49;;;;;;;41.75;26.05;;;9.90;73.60;;;;;;5058631;28;20045;-49
2022/01/23 11:10:21;;;;;;;40.33;25.35;;;9.90;73.70;;;;;;5065135;28;20095;-46
2022/01/23 11:18:31;;;;;;;42.83;26.58;;;10.00;73.40;;;;;;5058504;28;20064;-47
2022/01/23 11:20:58;;;;;;;44.90;26.77;;;10.00;73.10;;;;;;5071799;28;20040;-49
2022/01/23 11:23:27;;;;;;;44.95;27.30;;;10.00;73.40;;;;;;5065898;28;20095;-49
2022/01/23 11:25:57;;;;;;;47.92;27.33;;;10.10;73.40;;;;;;5066075;28;20049;-50
2022/01/23 11:28:32;;;;;;;42.67;26.33;;;10.10;73.30;;;;;;5060708;28;20048;-49
2022/01/23 11:30:59;;;;;;;42.95;26.30;;;10.10;73.00;;;;;;5071482;28;20040;-49
2022/01/23 11:33:26;;;;;;;42.67;26.35;;;10.10;73.20;;;;;;5066987;28;20036;-47
2022/01/23 11:35:53;;;;;;;45.72;29.40;;;10.20;73.10;;;;;;5069174;28;20048;-47
2022/01/23 11:38:22;;;;;;;41.78;27.35;;;10.20;73.10;;;;;;5060582;28;20044;-50
2022/01/23 11:54:41;;;;;;;39.45;24.95;;;10.30;72.90;;;;;;5057891;28;20057;-48
2022/01/23 11:57:35;;;;;;;41.17;24.05;;;10.30;72.60;;;;;;5064128;28;20074;-49
2022/01/23 12:00:23;;;;;;;37.95;24.00;;;10.40;72.40;;;;;;5066899;28;20067;-50
2022/01/23 12:03:14;;;;;;;38.20;25.60;;;10.40;72.70;;;;;;5065333;28;20054;-50
2022/01/23 12:05:49;;;;;;;40.00;24.20;;;10.40;72.30;;;;;;5064186;28;20036;-47
2022/01/23 12:08:35;;;;;;;43.35;26.90;;;10.40;72.60;;;;;;5057946;28;20044;-50
2022/01/23 12:17:11;;;;;;;40.35;26.33;;;10.50;71.90;;;;;;5061935;28;20866;-48
2022/01/23 12:19:51;;;;;;;45.70;27.30;;;10.50;72.20;;;;;;5040967;28;20044;-47
2022/01/23 12:22:40;;;;;;;42.38;27.15;;;10.50;72.20;;;;;;5070540;28;20048;-51
2022/01/23 12:25:11;;;;;;;38.63;24.20;;;10.50;71.70;;;;;;5065626;28;20483;-49
2022/01/23 12:27:38;;;;;;;41.97;26.67;;;10.50;72.00;;;;;;5056226;28;20052;-47
2022/01/23 12:30:23;;;;;;;43.55;26.30;;;10.50;72.80;;;;;;5067232;28;20076;-49
2022/01/23 12:33:11;;;;;;;43.58;26.08;;;10.60;72.00;;;;;;5035144;28;20048;-49
2022/01/23 12:35:44;;;;;;;35.90;23.80;;;10.60;71.60;;;;;;5064575;28;20048;-50
2022/01/23 12:38:13;;;;;;;38.22;25.63;;;10.60;71.90;;;;;;5061265;28;20086;-50
2022/01/23 12:40:47;;;;;;;43.97;27.10;;;10.60;72.10;;;;;;5067606;28;20050;-50
2022/01/23 12:43:19;;;;;;;43.47;24.40;;;10.70;71.70;;;;;;5059594;28;20047;-49
2022/01/23 12:46:10;;;;;;;38.63;25.73;;;10.70;71.70;;;;;;5057527;28;20044;-47
2022/01/23 12:48:39;;;;;;;39.15;25.83;;;10.70;71.60;;;;;;5057545;28;20045;-49
2022/01/23 12:51:32;;;;;;;38.92;25.10;;;10.80;71.70;;;;;;5066378;28;20045;-46
2022/01/23 12:53:59;;;;;;;39.28;24.83;;;10.80;71.10;;;;;;5052267;28;20094;-50
2022/01/23 12:56:30;;;;;;;42.22;25.90;;;10.80;71.50;;;;;;5061392;28;20153;-46
2022/01/23 12:59:06;;;;;;;38.40;23.77;;;10.80;71.20;;;;;;5057471;28;20099;-50
2022/01/23 13:01:33;;;;;;;37.90;24.95;;;10.80;71.20;;;;;;5068520;28;20045;-46
2022/01/23 13:04:02;;;;;;;39.17;24.83;;;10.90;71.30;;;;;;5060407;28;20102;-50
2022/01/23 13:06:50;;;;;;;41.70;25.92;;;10.90;71.20;;;;;;5063389;28;20040;-48
2022/01/23 13:32:39;;;;;;;37.72;25.02;;;11.00;71.10;;;;;;5066017;28;20048;-50
2022/01/23 13:35:12;;;;;;;33.53;22.65;;;11.00;70.00;;;;;;5070022;28;20121;-49
2022/01/23 13:37:47;;;;;;;39.22;24.55;;;11.00;70.40;;;;;;5060923;28;20121;-49
2022/01/23 13:40:23;;;;;;;39.10;25.05;;;11.10;69.80;;;;;;5068162;28;20037;-47
2022/01/23 13:47:59;;;;;;;37.45;24.42;;;11.10;70.30;;;;;;5062519;28;20040;-49
2022/01/23 14:02:15;;;;;;;33.25;21.75;;;11.20;69.70;;;;;;5066968;28;20098;-57
2022/01/23 14:04:51;;;;;;;35.08;21.80;;;11.20;69.70;;;;;;5066741;28;20049;-55
2022/01/23 14:07:24;;;;;;;33.05;21.80;;;11.20;69.80;;;;;;5061740;28;20040;-57
2022/01/23 14:09:54;;;;;;;35.75;21.58;;;11.20;69.70;;;;;;5066102;28;20067;-56
2022/01/23 14:12:23;;;;;;;36.33;23.15;;;11.20;69.90;;;;;;5065676;28;20110;-56
2022/01/23 14:15:13;;;;;;;34.28;22.08;;;11.10;70.00;;;;;;5061545;28;20453;-57
2022/01/23 14:17:42;;;;;;;37.78;22.88;;;11.10;69.60;;;;;;5059983;28;20095;-57
2022/01/23 14:20:16;;;;;;;31.10;20.60;;;11.10;69.70;;;;;;5049644;28;20103;-55
2022/01/23 14:22:45;;;;;;;34.97;22.52;;;11.20;69.60;;;;;;5042388;28;20125;-56
2022/01/23 14:25:28;;;;;;;39.28;24.00;;;11.20;69.70;;;;;;5068724;28;20067;-56
2022/01/23 14:28:12;;;;;;;31.90;21.77;;;11.20;69.30;;;;;;5059091;28;20049;-57
2022/01/23 14:31:01;;;;;;;30.48;21.30;;;11.20;69.70;;;;;;5074071;28;20113;-57
2022/01/23 14:33:33;;;;;;;36.63;22.05;;;11.20;69.20;;;;;;5066002;28;20045;-57
2022/01/23 14:36:22;;;;;;;36.55;21.85;;;11.20;69.60;;;;;;5065025;28;20150;-58
2022/01/23 14:39:06;;;;;;;42.00;23.02;;;11.20;69.70;;;;;;5059689;28;21307;-57
2022/01/23 14:41:37;;;;;;;37.30;22.63;;;11.20;69.20;;;;;;5074807;28;20399;-57
2022/01/23 14:44:23;;;;;;;35.90;20.67;;;11.20;69.70;;;;;;5064765;28;20462;-56
2022/01/23 14:46:55;;;;;;;32.53;22.63;;;11.10;69.30;;;;;;5066144;28;20047;-57
2022/01/23 14:49:28;;;;;;;33.45;21.52;;;11.10;69.60;;;;;;5062920;28;20055;-56
2022/01/23 14:51:57;;;;;;;36.40;22.50;;;11.10;69.60;;;;;;5062482;28;20099;-57
2022/01/23 14:54:26;;;;;;;39.17;23.15;;;11.10;69.70;;;;;;5086369;22;20115;-48
2022/01/23 14:56:53;;;;;;;33.60;20.45;;;11.10;69.80;;;;;;5063683;28;20036;-51
2022/01/23 14:59:20;;;;;;;33.85;21.23;;;11.10;70.00;;;;;;5044282;28;20460;-50
2022/01/23 15:01:47;;;;;;;34.10;19.83;;;11.10;70.00;;;;;;5030011;28;20040;-54
2022/01/23 15:04:15;;;;;;;41.60;20.98;;;11.00;70.00;;;;;;5059588;28;20136;-52
2022/01/23 15:06:48;;;;;;;36.40;20.83;;;11.00;70.10;;;;;;5046248;28;20064;-50
2022/01/23 15:09:18;;;;;;;33.08;20.00;;;11.00;70.10;;;;;;5068442;28;20094;-50
2022/01/23 15:11:45;;;;;;;25.95;17.38;;;11.00;70.10;;;;;;5054270;28;20105;-48
2022/01/23 15:14:12;;;;;;;32.22;19.63;;;11.00;70.20;;;;;;5069893;28;20044;-50
2022/01/23 15:16:40;;;;;;;31.58;18.88;;;10.90;70.20;;;;;;5040539;28;20082;-52
2022/01/23 15:19:12;;;;;;;30.95;19.45;;;10.90;70.30;;;;;;5054018;28;20040;-51
2022/01/23 15:21:38;;;;;;;30.70;19.33;;;10.90;70.40;;;;;;5060936;28;20041;-52
2022/01/23 15:24:06;;;;;;;30.95;20.05;;;10.90;70.50;;;;;;5060299;28;20091;-53
2022/01/23 15:26:35;;;;;;;30.85;19.27;;;10.80;70.50;;;;;;5057066;28;20045;-53
2022/01/23 15:29:05;;;;;;;29.70;18.73;;;10.80;70.70;;;;;;5060843;28;20099;-51
2022/01/23 15:31:36;;;;;;;31.75;21.42;;;10.80;70.80;;;;;;5067848;28;20482;-54
2022/01/23 15:34:02;;;;;;;31.33;19.60;;;10.80;70.80;;;;;;5057913;28;20100;-52
2022/01/23 15:36:30;;;;;;;31.92;19.38;;;10.80;70.90;;;;;;5058131;28;20587;-53
2022/01/23 15:38:57;;;;;;;33.38;21.08;;;10.70;70.90;;;;;;5069131;28;20044;-51
2022/01/23 15:41:23;;;;;;;31.95;20.13;;;10.70;70.90;;;;;;5059458;28;20041;-51
2022/01/23 15:43:53;;;;;;;33.88;19.83;;;10.70;70.90;;;;;;5059708;28;20079;-51
2022/01/23 15:46:20;;;;;;;28.90;17.80;;;10.70;70.70;;;;;;5055008;28;20041;-52
2022/01/23 15:48:47;;;;;;;28.60;19.58;;;10.60;70.80;;;;;;5059810;28;20109;-50
2022/01/23 15:51:16;;;;;;;27.58;18.58;;;10.60;70.90;;;;;;5049098;28;20052;-52
2022/01/23 15:53:43;;;;;;;28.60;18.70;;;10.60;71.00;;;;;;5056926;28;20083;-49
2022/01/23 15:56:10;;;;;;;30.65;20.85;;;10.60;71.10;;;;;;5042590;28;20470;-51
2022/01/23 15:58:37;;;;;;;29.70;20.55;;;10.60;71.10;;;;;;5061991;28;20463;-53
2022/01/23 16:01:04;;;;;;;30.20;19.98;;;10.60;71.20;;;;;;5061762;28;20491;-50
2022/01/23 16:03:34;;;;;;;29.65;19.83;;;10.50;71.10;;;;;;5022257;28;20060;-50
2022/01/23 16:06:01;;;;;;;30.90;20.00;;;10.50;71.20;;;;;;5042730;28;20033;-53
2022/01/23 16:08:28;;;;;;;26.17;18.30;;;10.50;71.40;;;;;;5038660;28;20679;-52
2022/01/23 16:10:55;;;;;;;26.13;17.27;;;10.40;71.30;;;;;;5047985;28;20121;-52
2022/01/23 16:13:22;;;;;;;31.15;18.52;;;10.50;71.40;;;;;;5046569;28;20452;-52
2022/01/23 16:15:48;;;;;;;27.58;18.65;;;10.40;71.40;;;;;;5050065;28;20049;-53
2022/01/23 16:18:15;;;;;;;26.33;17.35;;;10.40;71.50;;;;;;5034552;28;20052;-50
2022/01/23 16:20:42;;;;;;;25.45;16.42;;;10.30;71.50;;;;;;5055490;28;20041;-51
2022/01/23 16:23:09;;;;;;;28.17;18.13;;;10.30;71.60;;;;;;5043945;28;20123;-49
2022/01/23 16:25:53;;;;;;;27.38;16.60;;;10.30;71.60;;;;;;5039428;28;20045;-54
2022/01/23 16:28:20;;;;;;;24.42;16.98;;;10.30;71.70;;;;;;5036784;28;20448;-50
2022/01/23 16:30:50;;;;;;;26.35;17.67;;;10.30;71.70;;;;;;5052295;28;20036;-50
2022/01/23 16:33:18;;;;;;;28.55;18.20;;;10.20;71.70;;;;;;5042391;28;20444;-54
2022/01/23 16:35:45;;;;;;;27.08;17.42;;;10.20;71.90;;;;;;5049472;28;21524;-52
2022/01/23 16:38:12;;;;;;;28.13;17.67;;;10.20;71.90;;;;;;5036903;28;20049;-49
2022/01/23 16:40:41;;;;;;;28.02;18.27;;;10.20;71.90;;;;;;5045506;28;20041;-53
2022/01/23 16:43:08;;;;;;;30.45;18.17;;;10.10;71.90;;;;;;5047087;28;20880;-53